createdAt,value
2023-03-05T00:01:33.635Z,33.63
2023-03-05T00:04:01.821Z,37.30
2023-03-05T00:06:30.190Z,37.45
2023-03-05T00:08:58.449Z,36.25
2023-03-05T00:11:29.757Z,36.72
2023-03-05T00:13:57.686Z,36.03
2023-03-05T00:16:26.953Z,40.97
2023-03-05T00:18:55.422Z,39.83
2023-03-05T00:21:27.764Z,33.45
2023-03-05T00:26:23.868Z,34.75
2023-03-05T00:28:52.439Z,27.98
2023-03-05T00:31:22.101Z,34.65
2023-03-05T00:33:56.263Z,35.45
2023-03-05T00:36:24.605Z,34.28
2023-03-05T00:38:51.466Z,30.35
2023-03-05T00:41:18.172Z,36.90
2023-03-05T00:43:44.816Z,35.40
2023-03-05T00:46:11.596Z,32.28
2023-03-05T00:48:38.228Z,34.88
2023-03-05T00:51:05.127Z,35.53
2023-03-05T00:53:31.808Z,33.42
2023-03-05T00:55:58.851Z,32.70
2023-03-05T00:58:25.471Z,30.55
2023-03-05T01:00:52.025Z,32.67
2023-03-05T01:03:19.379Z,27.10
2023-03-05T01:05:46.078Z,28.52
2023-03-05T01:08:12.683Z,32.95
2023-03-05T01:10:39.335Z,32.22
2023-03-05T01:13:05.944Z,32.97
2023-03-05T01:15:32.650Z,30.02
2023-03-05T01:17:59.294Z,38.55
2023-03-05T01:20:25.894Z,29.95
2023-03-05T01:22:53.045Z,32.47
2023-03-05T01:25:19.738Z,35.95
2023-03-05T01:27:46.449Z,32.72
2023-03-05T01:30:14.771Z,34.47
2023-03-05T01:32:41.676Z,37.47
2023-03-05T01:35:11.069Z,32.92
2023-03-05T01:37:37.644Z,35.00
2023-03-05T01:40:05.622Z,32.85
2023-03-05T01:42:32.267Z,32.60
2023-03-05T01:45:10.290Z,34.88
2023-03-05T01:47:37.712Z,31.08
2023-03-05T01:50:07.942Z,30.15
2023-03-05T01:52:37.823Z,34.33
2023-03-05T01:55:17.472Z,35.85
2023-03-05T01:57:48.048Z,30.95
2023-03-05T02:00:22.464Z,36.67
2023-03-05T02:02:51.395Z,32.10
2023-03-05T02:05:29.513Z,38.85
2023-03-05T02:08:01.857Z,40.60
2023-03-05T02:13:04.149Z,31.27
2023-03-05T02:15:31.092Z,33.42
2023-03-05T02:17:57.739Z,35.97
2023-03-05T02:20:53.916Z,35.88
2023-03-05T02:23:22.681Z,31.67
2023-03-05T02:25:49.803Z,34.95
2023-03-05T02:28:46.027Z,30.23
2023-03-05T02:31:21.484Z,41.88
2023-03-05T02:33:48.722Z,36.47
2023-03-05T02:36:15.960Z,40.22
2023-03-05T02:38:43.336Z,36.83
2023-03-05T02:41:10.527Z,44.67
2023-03-05T02:43:37.408Z,39.90
2023-03-05T02:46:04.426Z,40.83
2023-03-05T02:48:31.637Z,36.20
2023-03-05T02:50:58.323Z,38.00
2023-03-05T02:53:26.393Z,49.33
2023-03-05T02:55:53.206Z,39.10
2023-03-05T02:58:19.814Z,40.28
2023-03-05T03:00:49.348Z,42.60
2023-03-05T03:03:16.192Z,53.92
2023-03-05T03:05:42.918Z,46.60
2023-03-05T03:08:10.438Z,47.15
2023-03-05T03:10:37.401Z,42.00
2023-03-05T03:13:04.099Z,42.22
2023-03-05T03:15:30.670Z,41.33
2023-03-05T03:17:57.298Z,37.92
2023-03-05T03:20:24.369Z,40.72
2023-03-05T03:22:51.109Z,47.05
2023-03-05T03:25:20.706Z,42.03
2023-03-05T03:27:47.335Z,43.42
2023-03-05T03:30:15.511Z,40.80
2023-03-05T03:32:42.480Z,44.50
2023-03-05T03:35:09.725Z,42.35
2023-03-05T03:37:36.404Z,50.03
2023-03-05T03:40:05.601Z,41.95
2023-03-05T03:42:32.815Z,49.25
2023-03-05T03:45:00.639Z,40.30
2023-03-05T03:47:27.248Z,44.15
2023-03-05T03:49:54.820Z,48.13
2023-03-05T03:52:23.012Z,41.10
2023-03-05T03:54:52.435Z,44.35
2023-03-05T03:57:19.425Z,52.17
2023-03-05T03:59:46.187Z,40.05
2023-03-05T04:02:12.958Z,42.22
2023-03-05T04:04:39.837Z,44.70
2023-03-05T04:07:06.481Z,46.25
2023-03-05T04:09:33.240Z,44.47
2023-03-05T04:11:59.854Z,47.38
2023-03-05T04:14:27.305Z,50.35
2023-03-05T04:16:53.898Z,48.78
2023-03-05T04:19:20.565Z,43.17
2023-03-05T04:21:47.209Z,47.25
2023-03-05T04:24:13.883Z,41.30
2023-03-05T04:26:40.475Z,42.95
2023-03-05T04:29:07.108Z,48.72
2023-03-05T04:31:33.750Z,40.83
2023-03-05T04:34:00.380Z,44.80
2023-03-05T04:36:26.985Z,43.03
2023-03-05T04:38:53.587Z,49.00
2023-03-05T04:41:20.238Z,42.33
2023-03-05T04:43:46.819Z,38.90
2023-03-05T04:46:13.495Z,46.22
2023-03-05T04:48:40.284Z,37.67
2023-03-05T04:51:06.888Z,45.22
2023-03-05T04:53:33.596Z,43.50
2023-03-05T04:56:01.691Z,40.67
2023-03-05T04:58:28.986Z,44.97
2023-03-05T05:01:01.224Z,39.83
2023-03-05T05:05:56.135Z,37.53
2023-03-05T05:08:23.503Z,38.72
2023-03-05T05:11:04.828Z,47.15
2023-03-05T05:13:32.424Z,45.63
2023-03-05T05:15:59.409Z,42.40
2023-03-05T05:18:27.262Z,42.60
2023-03-05T05:20:53.849Z,39.05
2023-03-05T05:23:20.424Z,38.47
2023-03-05T05:25:55.385Z,42.50
2023-03-05T05:28:21.959Z,39.83
2023-03-05T05:30:48.578Z,38.33
2023-03-05T05:33:15.312Z,40.25
2023-03-05T05:35:41.989Z,38.78
2023-03-05T05:38:08.660Z,41.25
2023-03-05T05:40:35.236Z,36.55
2023-03-05T05:43:01.815Z,43.75
2023-03-05T05:45:28.553Z,44.10
2023-03-05T05:47:55.432Z,37.88
2023-03-05T05:50:22.026Z,43.85
2023-03-05T05:52:48.647Z,37.55
2023-03-05T05:55:16.268Z,39.88
2023-03-05T05:57:42.931Z,40.08
2023-03-05T06:00:12.148Z,36.20
2023-03-05T06:02:43.127Z,41.58
2023-03-05T06:05:14.874Z,37.13
2023-03-05T06:07:41.554Z,26.80
2023-03-05T06:10:09.940Z,35.13
2023-03-05T06:12:36.658Z,34.75
2023-03-05T06:15:03.457Z,40.08
2023-03-05T06:17:31.035Z,35.20
2023-03-05T06:19:58.844Z,34.40
2023-03-05T06:22:25.572Z,39.58
2023-03-05T06:24:52.217Z,33.15
2023-03-05T06:27:18.893Z,40.47
2023-03-05T06:29:45.475Z,36.40
2023-03-05T06:32:12.160Z,43.80
2023-03-05T06:34:38.789Z,43.22
2023-03-05T06:37:05.444Z,36.85
2023-03-05T06:39:32.102Z,40.40
2023-03-05T06:41:58.777Z,36.20
2023-03-05T06:44:25.868Z,41.33
2023-03-05T06:46:52.584Z,30.15
2023-03-05T06:49:19.208Z,39.05
2023-03-05T06:51:45.831Z,37.17
2023-03-05T06:54:15.374Z,33.92
2023-03-05T06:56:44.550Z,34.83
2023-03-05T06:59:12.809Z,32.03
2023-03-05T07:01:39.421Z,38.70
2023-03-05T07:04:07.124Z,31.85
2023-03-05T07:06:36.186Z,43.05
2023-03-05T07:09:04.492Z,41.35
2023-03-05T07:11:31.738Z,40.30
2023-03-05T07:13:58.761Z,40.05
2023-03-05T07:16:28.010Z,32.50
2023-03-05T07:18:57.130Z,41.13
2023-03-05T07:21:27.644Z,37.80
2023-03-05T07:23:55.440Z,41.55
2023-03-05T07:26:22.911Z,35.33
2023-03-05T07:28:49.820Z,39.30
2023-03-05T07:31:22.326Z,40.55
2023-03-05T07:33:50.871Z,44.65
2023-03-05T07:36:17.954Z,43.70
2023-03-05T07:38:45.390Z,44.38
2023-03-05T07:41:19.997Z,34.28
2023-03-05T07:43:48.887Z,48.70
2023-03-05T07:46:17.814Z,42.50
2023-03-05T07:48:45.112Z,39.97
2023-03-05T07:51:15.901Z,44.47
2023-03-05T07:53:46.767Z,39.15
2023-03-05T07:56:13.818Z,39.38
2023-03-05T07:58:40.440Z,40.70
2023-03-05T08:01:14.416Z,38.08
2023-03-05T08:03:42.664Z,41.25
2023-03-05T08:06:11.570Z,37.03
2023-03-05T08:08:38.589Z,39.45
2023-03-05T08:11:06.764Z,46.05
2023-03-05T08:13:33.494Z,40.63
2023-03-05T08:16:04.058Z,41.10
2023-03-05T08:18:30.666Z,41.95
2023-03-05T08:20:58.088Z,42.90
2023-03-05T08:23:24.681Z,37.05
2023-03-05T08:25:51.258Z,43.58
2023-03-05T08:28:19.692Z,41.92
2023-03-05T08:30:49.119Z,42.47
2023-03-05T08:33:17.727Z,36.70
2023-03-05T08:35:45.427Z,38.50
2023-03-05T08:38:15.551Z,42.58
2023-03-05T08:40:43.304Z,41.45
2023-03-05T08:43:10.158Z,39.28
2023-03-05T08:45:39.294Z,39.03
2023-03-05T08:48:06.125Z,40.20
2023-03-05T08:50:32.698Z,44.58
2023-03-05T08:53:00.192Z,40.28
2023-03-05T08:55:26.786Z,36.00
2023-03-05T08:57:53.444Z,36.95
2023-03-05T09:00:20.343Z,43.85
2023-03-05T09:02:46.998Z,42.90
2023-03-05T09:05:15.674Z,42.60
2023-03-05T09:07:42.528Z,39.63
2023-03-05T09:10:11.588Z,37.40
2023-03-05T09:12:38.196Z,35.65
2023-03-05T09:15:08.248Z,30.63
2023-03-05T09:17:38.738Z,31.33
2023-03-05T09:20:06.648Z,35.67
2023-03-05T09:22:33.387Z,32.80
2023-03-05T09:24:59.935Z,36.15
2023-03-05T09:27:26.558Z,31.83
2023-03-05T09:29:53.313Z,27.70
2023-03-05T09:32:20.145Z,37.53
2023-03-05T09:34:46.839Z,28.50
2023-03-05T09:37:13.510Z,27.27
2023-03-05T09:39:40.307Z,23.63
2023-03-05T09:42:15.783Z,27.02
2023-03-05T09:44:51.482Z,27.05
2023-03-05T09:47:38.961Z,27.17
2023-03-05T09:50:23.622Z,26.77
2023-03-05T09:52:57.738Z,30.33
2023-03-05T09:55:29.937Z,32.13
2023-03-05T09:58:03.532Z,25.65
2023-03-05T10:00:38.526Z,28.33
2023-03-05T10:03:22.866Z,24.40
2023-03-05T10:06:09.755Z,26.38
2023-03-05T10:09:06.900Z,29.60
2023-03-05T10:11:50.441Z,28.00
2023-03-05T10:14:30.277Z,22.88
2023-03-05T10:17:24.161Z,31.92
2023-03-05T10:20:28.115Z,23.38
2023-03-05T10:23:06.743Z,27.77
2023-03-05T10:26:05.945Z,29.92
2023-03-05T10:29:06.781Z,22.02
2023-03-05T10:31:59.529Z,25.27
2023-03-05T10:34:43.026Z,21.15
2023-03-05T10:37:31.979Z,19.98
2023-03-05T10:40:14.185Z,21.25
2023-03-05T10:43:02.851Z,21.63
2023-03-05T10:45:37.099Z,24.10
2023-03-05T10:48:35.100Z,26.27
2023-03-05T10:51:21.724Z,25.10
2023-03-05T10:53:56.922Z,29.25
2023-03-05T10:56:29.960Z,26.45
2023-03-05T10:59:01.766Z,18.98
2023-03-05T11:01:36.636Z,21.50
2023-03-05T11:04:25.168Z,22.05
2023-03-05T11:06:57.630Z,21.80
2023-03-05T11:09:29.679Z,23.40
2023-03-05T11:12:16.872Z,30.70
2023-03-05T11:15:04.138Z,33.42
2023-03-05T11:17:38.633Z,25.67
2023-03-05T11:20:26.552Z,24.63
2023-03-05T11:23:29.888Z,24.50
2023-03-05T11:26:00.938Z,23.30
2023-03-05T11:28:37.303Z,23.42
2023-03-05T11:31:23.646Z,21.55
2023-03-05T11:34:04.229Z,24.90
2023-03-05T11:36:42.079Z,33.50
2023-03-05T11:39:14.919Z,24.95
2023-03-05T11:41:48.000Z,23.73
2023-03-05T11:44:21.110Z,25.48
2023-03-05T11:46:52.593Z,23.42
2023-03-05T11:49:23.254Z,21.40
2023-03-05T11:51:55.741Z,25.00
2023-03-05T11:54:30.051Z,16.65
2023-03-05T11:56:56.896Z,22.13
2023-03-05T11:59:29.571Z,22.05
2023-03-05T12:01:58.532Z,24.08
2023-03-05T12:04:25.826Z,24.45
2023-03-05T12:07:00.604Z,19.75
2023-03-05T12:09:42.340Z,23.65
2023-03-05T12:12:17.880Z,19.10
2023-03-05T12:14:58.240Z,19.92
2023-03-05T12:17:37.987Z,18.38
2023-03-05T12:20:35.545Z,22.27
2023-03-05T12:23:02.255Z,21.73
2023-03-05T12:25:44.639Z,20.55
2023-03-05T12:28:34.302Z,20.20
2023-03-05T12:31:02.845Z,26.63
2023-03-05T12:33:33.033Z,16.55
2023-03-05T12:36:21.147Z,19.27
2023-03-05T12:38:57.507Z,16.52
2023-03-05T12:41:25.392Z,18.38
2023-03-05T12:44:05.682Z,23.85
2023-03-05T12:46:43.720Z,21.45
2023-03-05T12:49:19.234Z,23.02
2023-03-05T12:51:56.870Z,17.95
2023-03-05T12:54:42.050Z,22.27
2023-03-05T12:57:19.140Z,18.05
2023-03-05T12:59:59.709Z,20.35
2023-03-05T13:02:28.601Z,17.38
2023-03-05T13:05:00.535Z,15.18
2023-03-05T13:07:27.204Z,19.58
2023-03-05T13:09:57.339Z,23.13
2023-03-05T13:12:26.187Z,24.50
2023-03-05T13:15:08.911Z,17.98
2023-03-05T13:17:44.525Z,21.15
2023-03-05T13:20:38.840Z,20.00
2023-03-05T13:23:24.786Z,23.80
2023-03-05T13:26:10.385Z,19.73
2023-03-05T13:28:39.445Z,21.60
2023-03-05T13:31:18.619Z,19.98
2023-03-05T13:33:54.551Z,29.58
2023-03-05T13:36:24.150Z,24.98
2023-03-05T13:38:51.674Z,24.80
2023-03-05T13:41:28.970Z,25.48
2023-03-05T13:44:00.955Z,25.35
2023-03-05T13:46:34.648Z,24.15
2023-03-05T13:49:36.664Z,24.13
2023-03-05T13:52:03.379Z,23.63
2023-03-05T13:54:30.667Z,23.42
2023-03-05T13:57:00.630Z,19.67
2023-03-05T13:59:35.367Z,30.20
2023-03-05T14:02:15.750Z,24.38
2023-03-05T14:04:45.000Z,25.30
2023-03-05T14:07:20.204Z,24.20
2023-03-05T14:09:52.125Z,23.05
2023-03-05T14:12:35.628Z,22.75
2023-03-05T14:15:02.501Z,21.90
2023-03-05T14:17:38.836Z,23.75
2023-03-05T14:20:14.792Z,24.98
2023-03-05T14:22:46.480Z,29.42
2023-03-05T14:25:42.411Z,21.98
2023-03-05T14:28:17.870Z,27.58
2023-03-05T14:31:02.662Z,25.83
2023-03-05T14:33:32.748Z,25.48
2023-03-05T14:36:01.576Z,23.63
2023-03-05T14:38:31.792Z,20.67
2023-03-05T14:40:58.478Z,28.45
2023-03-05T14:43:25.124Z,22.45
2023-03-05T14:45:51.858Z,25.13
2023-03-05T14:48:21.284Z,20.95
2023-03-05T14:50:57.008Z,38.42
2023-03-05T14:53:30.077Z,25.15
2023-03-05T14:55:57.028Z,25.45
2023-03-05T14:58:32.310Z,23.83
2023-03-05T15:00:59.830Z,23.48
2023-03-05T15:03:27.991Z,26.92
2023-03-05T15:06:00.710Z,26.30
2023-03-05T15:08:31.048Z,23.10
2023-03-05T15:11:00.063Z,31.45
2023-03-05T15:13:27.220Z,20.42
2023-03-05T15:15:54.184Z,19.58
2023-03-05T15:18:22.521Z,24.48
2023-03-05T15:20:52.021Z,22.23
2023-03-05T15:23:19.381Z,21.73
2023-03-05T15:25:46.207Z,19.17
2023-03-05T15:28:12.868Z,23.73
2023-03-05T15:30:42.408Z,22.25
2023-03-05T15:33:12.059Z,19.73
2023-03-05T15:35:38.775Z,20.38
2023-03-05T15:38:05.587Z,21.50
2023-03-05T15:40:32.465Z,19.33
2023-03-05T15:43:00.371Z,21.70
2023-03-05T15:45:27.991Z,19.17
2023-03-05T15:47:54.730Z,21.80
2023-03-05T15:50:22.167Z,27.92
2023-03-05T15:52:49.757Z,22.35
2023-03-05T15:55:18.378Z,22.70
2023-03-05T15:57:48.052Z,25.63
2023-03-05T16:00:17.716Z,26.45
2023-03-05T16:02:44.337Z,23.13
2023-03-05T16:05:11.398Z,19.83
2023-03-05T16:07:42.013Z,23.08
2023-03-05T16:10:13.128Z,24.27
2023-03-05T16:12:42.966Z,21.52
2023-03-05T16:15:17.143Z,22.90
2023-03-05T16:17:45.487Z,27.38
2023-03-05T16:20:12.917Z,21.48
2023-03-05T16:22:40.072Z,20.20
2023-03-05T16:25:07.006Z,22.23
2023-03-05T16:27:34.074Z,22.17
2023-03-05T16:30:00.778Z,23.27
2023-03-05T16:32:27.435Z,21.35
2023-03-05T16:34:54.021Z,21.67
2023-03-05T16:37:23.247Z,19.40
2023-03-05T16:39:50.157Z,21.05
2023-03-05T16:42:16.994Z,19.83
2023-03-05T16:44:44.755Z,21.52
2023-03-05T16:47:12.334Z,21.13
2023-03-05T16:49:39.918Z,23.85
2023-03-05T16:52:18.421Z,21.80
2023-03-05T16:54:46.376Z,29.42
2023-03-05T16:57:13.049Z,21.73
2023-03-05T16:59:44.368Z,23.90
2023-03-05T17:02:13.270Z,23.80
2023-03-05T17:04:40.161Z,24.55
2023-03-05T17:07:07.218Z,23.15
2023-03-05T17:09:33.867Z,18.52
2023-03-05T17:12:00.825Z,18.92
2023-03-05T17:14:27.457Z,20.00
2023-03-05T17:16:57.116Z,25.92
2023-03-05T17:19:23.716Z,20.10
2023-03-05T17:21:52.186Z,20.92
2023-03-05T17:24:22.798Z,39.53
2023-03-05T17:26:50.153Z,19.77
2023-03-05T17:29:18.989Z,21.00
2023-03-05T17:31:46.582Z,22.55
2023-03-05T17:34:13.322Z,19.35
2023-03-05T17:36:40.100Z,18.95
2023-03-05T17:39:06.796Z,19.65
2023-03-05T17:41:33.395Z,21.02
2023-03-05T17:44:00.121Z,17.25
2023-03-05T17:46:28.924Z,21.13
2023-03-05T17:48:55.686Z,26.48
2023-03-05T17:51:22.405Z,22.75
2023-03-05T17:53:49.082Z,21.88
2023-03-05T17:56:22.204Z,24.60
2023-03-05T17:58:49.902Z,17.42
2023-03-05T18:01:28.387Z,28.40
2023-03-05T18:03:55.730Z,18.15
2023-03-05T18:06:22.938Z,22.33
2023-03-05T18:08:52.476Z,22.67
2023-03-05T18:11:19.177Z,20.92
2023-03-05T18:13:48.291Z,20.77
2023-03-05T18:16:18.494Z,20.27
2023-03-05T18:18:45.423Z,19.33
2023-03-05T18:21:12.409Z,15.20
2023-03-05T18:23:41.433Z,21.92
2023-03-05T18:26:14.731Z,19.90
2023-03-05T18:28:41.666Z,21.17
2023-03-05T18:31:08.803Z,19.92
2023-03-05T18:33:35.753Z,22.95
2023-03-05T18:36:02.816Z,23.15
2023-03-05T18:38:31.920Z,21.48
2023-03-05T18:41:03.573Z,24.77
2023-03-05T18:43:33.124Z,19.98
2023-03-05T18:46:00.061Z,21.67
2023-03-05T18:48:26.837Z,21.30
2023-03-05T18:50:54.362Z,18.58
2023-03-05T18:53:22.431Z,16.85
2023-03-05T18:55:51.333Z,21.58
2023-03-05T18:58:18.452Z,19.65
2023-03-05T19:00:47.118Z,24.95
2023-03-05T19:03:15.063Z,20.85
2023-03-05T19:05:42.598Z,19.95
2023-03-05T19:08:09.994Z,23.60
2023-03-05T19:10:36.956Z,19.30
2023-03-05T19:13:49.056Z,18.15
2023-03-05T19:16:19.759Z,26.00
2023-03-05T19:19:24.730Z,21.58
2023-03-05T19:21:58.706Z,23.85
2023-03-05T19:24:30.595Z,20.77
2023-03-05T19:27:01.095Z,29.70
2023-03-05T19:29:33.200Z,23.40
2023-03-05T19:31:59.960Z,22.10
2023-03-05T19:34:26.690Z,24.23
2023-03-05T19:36:53.401Z,20.10
2023-03-05T19:39:20.047Z,21.50
2023-03-05T19:41:46.686Z,20.88
2023-03-05T19:44:13.778Z,22.23
2023-03-05T19:46:41.974Z,16.40
2023-03-05T19:49:08.970Z,20.42
2023-03-05T19:51:35.928Z,19.15
2023-03-05T19:54:04.648Z,17.10
2023-03-05T19:56:31.624Z,18.45
2023-03-05T19:58:58.268Z,22.55
2023-03-05T20:01:27.228Z,22.33
2023-03-05T20:03:56.432Z,19.77
2023-03-05T20:06:24.323Z,25.95
2023-03-05T20:08:51.235Z,22.08
2023-03-05T20:11:18.996Z,19.73
2023-03-05T20:13:46.398Z,20.10
2023-03-05T20:16:19.014Z,19.45
2023-03-05T20:18:46.529Z,21.38
2023-03-05T20:21:21.311Z,20.17
2023-03-05T20:23:48.063Z,19.30
2023-03-05T20:26:14.779Z,17.52
2023-03-05T20:28:41.529Z,20.50
2023-03-05T20:31:08.688Z,17.85
2023-03-05T20:33:35.455Z,20.17
2023-03-05T20:36:02.165Z,17.15
2023-03-05T20:38:30.992Z,20.88
2023-03-05T20:41:04.863Z,20.25
2023-03-05T20:43:35.566Z,21.10
2023-03-05T20:46:02.951Z,20.75
2023-03-05T20:48:32.744Z,16.45
2023-03-05T20:51:10.640Z,22.02
2023-03-05T20:53:37.314Z,21.52
2023-03-05T20:56:04.065Z,18.13
2023-03-05T20:58:30.709Z,23.52
2023-03-05T21:00:57.499Z,17.73
2023-03-05T21:03:25.619Z,22.00
2023-03-05T21:05:55.838Z,23.45
2023-03-05T21:08:26.157Z,23.20
2023-03-05T21:10:52.886Z,20.27
2023-03-05T21:13:19.684Z,16.25
2023-03-05T21:15:46.628Z,22.25
2023-03-05T21:18:13.380Z,20.77
2023-03-05T21:20:41.212Z,19.85
2023-03-05T21:23:08.065Z,16.40
2023-03-05T21:25:36.658Z,21.30
2023-03-05T21:28:09.776Z,20.20
2023-03-05T21:30:39.664Z,17.52
2023-03-05T21:33:10.051Z,18.98
2023-03-05T21:35:38.026Z,18.25
2023-03-05T21:38:06.637Z,17.52
2023-03-05T21:40:35.863Z,19.77
2023-03-05T21:43:03.749Z,21.83
2023-03-05T21:45:30.844Z,18.85
2023-03-05T21:47:58.876Z,19.30
2023-03-05T21:50:26.345Z,18.15
2023-03-05T21:52:53.291Z,21.95
2023-03-05T21:55:29.289Z,18.55
2023-03-05T21:57:56.134Z,20.92
2023-03-05T22:00:23.250Z,16.77
2023-03-05T22:02:50.012Z,18.40
2023-03-05T22:05:17.543Z,17.95
2023-03-05T22:07:44.601Z,14.82
2023-03-05T22:10:14.860Z,18.75
2023-03-05T22:13:09.418Z,19.40
2023-03-05T22:15:46.583Z,18.25
2023-03-05T22:18:15.901Z,23.60
2023-03-05T22:20:42.979Z,21.42
2023-03-05T22:23:10.513Z,18.35
2023-03-05T22:25:37.921Z,20.85
2023-03-05T22:28:05.753Z,23.27
2023-03-05T22:30:33.060Z,17.88
2023-03-05T22:33:01.225Z,21.77
2023-03-05T22:35:28.342Z,22.67
2023-03-05T22:37:55.380Z,23.38
2023-03-05T22:40:22.763Z,25.13
2023-03-05T22:42:49.683Z,23.25
2023-03-05T22:45:18.003Z,23.92
2023-03-05T22:47:51.697Z,23.35
2023-03-05T22:50:18.529Z,21.10
2023-03-05T22:52:45.278Z,18.63
2023-03-05T22:55:14.067Z,18.80
2023-03-05T22:57:41.499Z,20.17
2023-03-05T23:00:14.197Z,22.30
2023-03-05T23:02:41.833Z,23.50
2023-03-05T23:05:09.780Z,19.73
2023-03-05T23:07:38.540Z,31.15
2023-03-05T23:10:17.671Z,17.98
2023-03-05T23:12:49.400Z,24.90
2023-03-05T23:15:20.697Z,20.42
2023-03-05T23:17:47.508Z,21.98
2023-03-05T23:20:16.957Z,23.52
2023-03-05T23:22:45.160Z,19.17
2023-03-05T23:25:14.109Z,18.85
2023-03-05T23:27:41.200Z,27.13
2023-03-05T23:30:19.608Z,20.67
2023-03-05T23:33:10.529Z,21.40
2023-03-05T23:35:39.955Z,20.70
2023-03-05T23:38:11.796Z,21.88
2023-03-05T23:40:49.727Z,25.73
2023-03-05T23:43:18.092Z,21.10
2023-03-05T23:45:48.178Z,21.85
2023-03-05T23:48:16.681Z,23.23
2023-03-05T23:50:46.321Z,23.98
2023-03-05T23:53:19.655Z,25.95
2023-03-05T23:55:47.117Z,25.70
2023-03-05T23:58:14.428Z,22.35
